sensor_id;sensor_type;location;lat;lon;timestamp;temperature;humidity
43151;DHT22;28755;51.478;5.702;2023-08-08T00:02:13;14.50;99.90
43151;DHT22;28755;51.478;5.702;2023-08-08T00:04:38;14.50;99.90
43151;DHT22;28755;51.478;5.702;2023-08-08T00:07:04;14.50;99.90
43151;DHT22;28755;51.478;5.702;2023-08-08T00:09:29;14.50;99.90
43151;DHT22;28755;51.478;5.702;2023-08-08T00:11:55;14.60;99.90
43151;DHT22;28755;51.478;5.702;2023-08-08T00:14:23;14.50;99.90
43151;DHT22;28755;51.478;5.702;2023-08-08T00:16:48;14.60;99.90
43151;DHT22;28755;51.478;5.702;2023-08-08T00:19:14;14.60;99.90
43151;DHT22;28755;51.478;5.702;2023-08-08T00:21:40;14.60;99.90
43151;DHT22;28755;51.478;5.702;2023-08-08T00:24:05;14.60;99.90
43151;DHT22;28755;51.478;5.702;2023-08-08T00:26:31;14.60;99.90
43151;DHT22;28755;51.478;5.702;2023-08-08T00:28:56;14.60;99.90
43151;DHT22;28755;51.478;5.702;2023-08-08T00:31:22;14.60;99.90
43151;DHT22;28755;51.478;5.702;2023-08-08T00:33:47;14.70;99.90
43151;DHT22;28755;51.478;5.702;2023-08-08T00:36:13;14.70;99.90
43151;DHT22;28755;51.478;5.702;2023-08-08T00:38:39;14.70;99.90
43151;DHT22;28755;51.478;5.702;2023-08-08T00:41:04;14.70;99.90
43151;DHT22;28755;51.478;5.702;2023-08-08T00:43:30;14.70;99.90
43151;DHT22;28755;51.478;5.702;2023-08-08T00:45:57;14.70;99.90
43151;DHT22;28755;51.478;5.702;2023-08-08T00:48:23;14.80;99.90
43151;DHT22;28755;51.478;5.702;2023-08-08T00:50:50;14.80;99.90
43151;DHT22;28755;51.478;5.702;2023-08-08T00:53:17;14.90;99.90
43151;DHT22;28755;51.478;5.702;2023-08-08T00:55:44;14.90;99.90
43151;DHT22;28755;51.478;5.702;2023-08-08T00:58:10;14.80;99.90
43151;DHT22;28755;51.478;5.702;2023-08-08T01:00:36;14.90;99.90
43151;DHT22;28755;51.478;5.702;2023-08-08T01:03:02;14.80;99.90
43151;DHT22;28755;51.478;5.702;2023-08-08T01:05:35;14.80;99.90
43151;DHT22;28755;51.478;5.702;2023-08-08T01:08:07;14.80;99.90
43151;DHT22;28755;51.478;5.702;2023-08-08T01:10:40;14.80;99.90
43151;DHT22;28755;51.478;5.702;2023-08-08T01:13:09;14.90;99.90
43151;DHT22;28755;51.478;5.702;2023-08-08T01:15:36;14.80;99.90
43151;DHT22;28755;51.478;5.702;2023-08-08T01:18:06;14.80;99.90
43151;DHT22;28755;51.478;5.702;2023-08-08T01:20:33;14.90;99.90
43151;DHT22;28755;51.478;5.702;2023-08-08T01:25:42;14.90;99.90
43151;DHT22;28755;51.478;5.702;2023-08-08T01:28:09;15.00;99.90
43151;DHT22;28755;51.478;5.702;2023-08-08T01:30:35;14.90;99.90
43151;DHT22;28755;51.478;5.702;2023-08-08T01:33:01;14.90;99.90
43151;DHT22;28755;51.478;5.702;2023-08-08T01:35:30;15.00;99.90
43151;DHT22;28755;51.478;5.702;2023-08-08T01:38:33;14.90;99.90
43151;DHT22;28755;51.478;5.702;2023-08-08T01:40:59;15.00;99.90
43151;DHT22;28755;51.478;5.702;2023-08-08T01:43:26;15.00;99.90
43151;DHT22;28755;51.478;5.702;2023-08-08T01:45:52;15.10;99.90
43151;DHT22;28755;51.478;5.702;2023-08-08T01:48:18;15.00;99.90
43151;DHT22;28755;51.478;5.702;2023-08-08T01:50:44;15.00;99.90
43151;DHT22;28755;51.478;5.702;2023-08-08T01:53:09;15.10;99.90
43151;DHT22;28755;51.478;5.702;2023-08-08T01:55:35;15.10;99.90
43151;DHT22;28755;51.478;5.702;2023-08-08T01:58:01;15.10;99.90
43151;DHT22;28755;51.478;5.702;2023-08-08T02:00:26;15.10;99.90
43151;DHT22;28755;51.478;5.702;2023-08-08T02:02:52;15.10;99.90
43151;DHT22;28755;51.478;5.702;2023-08-08T02:05:18;15.10;99.90
43151;DHT22;28755;51.478;5.702;2023-08-08T02:07:43;15.10;99.90
43151;DHT22;28755;51.478;5.702;2023-08-08T02:10:09;15.10;99.90
43151;DHT22;28755;51.478;5.702;2023-08-08T02:12:34;15.10;99.90
43151;DHT22;28755;51.478;5.702;2023-08-08T02:15:00;15.00;99.90
43151;DHT22;28755;51.478;5.702;2023-08-08T02:17:25;14.90;99.90
43151;DHT22;28755;51.478;5.702;2023-08-08T02:19:51;15.00;99.90
43151;DHT22;28755;51.478;5.702;2023-08-08T02:22:17;15.00;99.90
43151;DHT22;28755;51.478;5.702;2023-08-08T02:24:43;15.00;99.90
43151;DHT22;28755;51.478;5.702;2023-08-08T02:27:09;14.90;99.90
43151;DHT22;28755;51.478;5.702;2023-08-08T02:29:35;14.90;99.90
43151;DHT22;28755;51.478;5.702;2023-08-08T02:32:00;14.80;99.90
43151;DHT22;28755;51.478;5.702;2023-08-08T02:34:26;14.80;99.90
43151;DHT22;28755;51.478;5.702;2023-08-08T02:36:51;14.80;99.90
43151;DHT22;28755;51.478;5.702;2023-08-08T02:39:17;14.70;99.90
43151;DHT22;28755;51.478;5.702;2023-08-08T02:41:43;14.60;99.90
43151;DHT22;28755;51.478;5.702;2023-08-08T02:44:09;14.60;99.90
43151;DHT22;28755;51.478;5.702;2023-08-08T02:46:34;14.60;99.90
43151;DHT22;28755;51.478;5.702;2023-08-08T02:49:02;14.60;99.90
43151;DHT22;28755;51.478;5.702;2023-08-08T02:51:27;14.60;99.90
43151;DHT22;28755;51.478;5.702;2023-08-08T02:53:53;14.50;99.90
43151;DHT22;28755;51.478;5.702;2023-08-08T02:56:18;14.50;99.90
43151;DHT22;28755;51.478;5.702;2023-08-08T02:58:44;14.50;99.90
43151;DHT22;28755;51.478;5.702;2023-08-08T03:01:09;14.60;99.90
43151;DHT22;28755;51.478;5.702;2023-08-08T03:03:35;14.50;99.90
43151;DHT22;28755;51.478;5.702;2023-08-08T03:06:03;14.50;99.90
43151;DHT22;28755;51.478;5.702;2023-08-08T03:08:28;14.50;99.90
43151;DHT22;28755;51.478;5.702;2023-08-08T03:10:54;14.40;99.90
43151;DHT22;28755;51.478;5.702;2023-08-08T03:13:19;14.40;99.90
43151;DHT22;28755;51.478;5.702;2023-08-08T03:15:45;14.40;99.90
43151;DHT22;28755;51.478;5.702;2023-08-08T03:18:11;14.40;99.90
43151;DHT22;28755;51.478;5.702;2023-08-08T03:20:36;14.50;99.90
43151;DHT22;28755;51.478;5.702;2023-08-08T03:23:02;14.40;99.90
43151;DHT22;28755;51.478;5.702;2023-08-08T03:25:27;14.40;99.90
43151;DHT22;28755;51.478;5.702;2023-08-08T03:27:53;14.40;99.90
43151;DHT22;28755;51.478;5.702;2023-08-08T03:30:18;14.50;99.90
43151;DHT22;28755;51.478;5.702;2023-08-08T03:32:44;14.40;99.90
43151;DHT22;28755;51.478;5.702;2023-08-08T03:35:10;14.40;99.90
43151;DHT22;28755;51.478;5.702;2023-08-08T03:37:35;14.40;99.90
43151;DHT22;28755;51.478;5.702;2023-08-08T03:40:01;14.40;99.90
43151;DHT22;28755;51.478;5.702;2023-08-08T03:42:27;14.60;99.90
43151;DHT22;28755;51.478;5.702;2023-08-08T03:44:53;14.50;99.90
43151;DHT22;28755;51.478;5.702;2023-08-08T03:47:18;14.50;99.90
43151;DHT22;28755;51.478;5.702;2023-08-08T03:49:44;14.50;99.90
43151;DHT22;28755;51.478;5.702;2023-08-08T03:52:09;14.40;99.90
43151;DHT22;28755;51.478;5.702;2023-08-08T03:54:35;14.40;99.90
43151;DHT22;28755;51.478;5.702;2023-08-08T03:57:00;14.50;99.90
43151;DHT22;28755;51.478;5.702;2023-08-08T03:59:26;14.50;99.90
43151;DHT22;28755;51.478;5.702;2023-08-08T04:01:52;14.50;99.90
43151;DHT22;28755;51.478;5.702;2023-08-08T04:04:17;14.50;99.90
43151;DHT22;28755;51.478;5.702;2023-08-08T04:06:43;14.40;99.90
43151;DHT22;28755;51.478;5.702;2023-08-08T04:09:08;14.50;99.90
43151;DHT22;28755;51.478;5.702;2023-08-08T04:11:34;14.50;99.90
43151;DHT22;28755;51.478;5.702;2023-08-08T04:14:01;14.50;99.90
43151;DHT22;28755;51.478;5.702;2023-08-08T04:16:27;14.40;99.90
43151;DHT22;28755;51.478;5.702;2023-08-08T04:18:53;14.40;99.90
43151;DHT22;28755;51.478;5.702;2023-08-08T04:21:18;14.30;99.90
43151;DHT22;28755;51.478;5.702;2023-08-08T04:23:44;14.30;99.90
43151;DHT22;28755;51.478;5.702;2023-08-08T04:26:10;14.30;99.90
43151;DHT22;28755;51.478;5.702;2023-08-08T04:28:35;14.20;99.90
43151;DHT22;28755;51.478;5.702;2023-08-08T04:31:01;14.20;99.90
43151;DHT22;28755;51.478;5.702;2023-08-08T04:33:26;14.20;99.90
43151;DHT22;28755;51.478;5.702;2023-08-08T04:35:52;14.20;99.90
43151;DHT22;28755;51.478;5.702;2023-08-08T04:38:18;14.10;99.90
43151;DHT22;28755;51.478;5.702;2023-08-08T04:40:43;14.10;99.90
43151;DHT22;28755;51.478;5.702;2023-08-08T04:43:09;14.10;99.90
43151;DHT22;28755;51.478;5.702;2023-08-08T04:45:34;14.10;99.90
43151;DHT22;28755;51.478;5.702;2023-08-08T04:48:00;14.20;99.90
43151;DHT22;28755;51.478;5.702;2023-08-08T04:50:25;14.20;99.90
43151;DHT22;28755;51.478;5.702;2023-08-08T04:52:51;14.20;99.90
43151;DHT22;28755;51.478;5.702;2023-08-08T04:55:16;14.20;99.90
43151;DHT22;28755;51.478;5.702;2023-08-08T04:57:42;14.10;99.90
43151;DHT22;28755;51.478;5.702;2023-08-08T05:00:08;14.10;99.90
43151;DHT22;28755;51.478;5.702;2023-08-08T05:02:35;14.10;99.90
43151;DHT22;28755;51.478;5.702;2023-08-08T05:05:00;14.10;99.90
43151;DHT22;28755;51.478;5.702;2023-08-08T05:07:27;14.10;99.90
43151;DHT22;28755;51.478;5.702;2023-08-08T05:09:52;14.10;99.90
43151;DHT22;28755;51.478;5.702;2023-08-08T05:12:18;14.20;99.90
43151;DHT22;28755;51.478;5.702;2023-08-08T05:14:44;14.20;99.90
43151;DHT22;28755;51.478;5.702;2023-08-08T05:17:09;14.20;99.90
43151;DHT22;28755;51.478;5.702;2023-08-08T05:19:35;14.40;99.90
43151;DHT22;28755;51.478;5.702;2023-08-08T05:22:00;14.40;99.90
43151;DHT22;28755;51.478;5.702;2023-08-08T05:24:26;14.40;99.90
43151;DHT22;28755;51.478;5.702;2023-08-08T05:26:51;14.40;99.90
43151;DHT22;28755;51.478;5.702;2023-08-08T05:29:19;14.40;99.90
43151;DHT22;28755;51.478;5.702;2023-08-08T05:31:45;14.40;99.90
43151;DHT22;28755;51.478;5.702;2023-08-08T05:34:11;14.40;99.90
43151;DHT22;28755;51.478;5.702;2023-08-08T05:36:36;14.50;99.90
43151;DHT22;28755;51.478;5.702;2023-08-08T05:39:02;14.50;99.90
43151;DHT22;28755;51.478;5.702;2023-08-08T05:41:28;14.60;99.90
43151;DHT22;28755;51.478;5.702;2023-08-08T05:43:53;14.70;99.90
43151;DHT22;28755;51.478;5.702;2023-08-08T05:46:19;14.80;99.90
43151;DHT22;28755;51.478;5.702;2023-08-08T05:48:45;14.80;99.90
43151;DHT22;28755;51.478;5.702;2023-08-08T05:51:11;14.90;99.90
43151;DHT22;28755;51.478;5.702;2023-08-08T05:53:37;15.00;99.90
43151;DHT22;28755;51.478;5.702;2023-08-08T05:56:03;15.00;99.90
43151;DHT22;28755;51.478;5.702;2023-08-08T05:58:29;15.10;99.90
43151;DHT22;28755;51.478;5.702;2023-08-08T06:00:55;15.30;99.90
43151;DHT22;28755;51.478;5.702;2023-08-08T06:03:20;15.30;99.90
43151;DHT22;28755;51.478;5.702;2023-08-08T06:05:46;15.30;99.90
43151;DHT22;28755;51.478;5.702;2023-08-08T06:08:12;15.40;99.90
43151;DHT22;28755;51.478;5.702;2023-08-08T06:10:38;15.40;99.90
43151;DHT22;28755;51.478;5.702;2023-08-08T06:13:04;15.60;99.90
43151;DHT22;28755;51.478;5.702;2023-08-08T06:15:30;15.70;99.90
43151;DHT22;28755;51.478;5.702;2023-08-08T06:17:56;15.60;99.90
43151;DHT22;28755;51.478;5.702;2023-08-08T06:20:21;15.60;99.90
43151;DHT22;28755;51.478;5.702;2023-08-08T06:22:49;15.70;99.90
43151;DHT22;28755;51.478;5.702;2023-08-08T06:25:14;15.80;99.90
43151;DHT22;28755;51.478;5.702;2023-08-08T06:27:40;15.80;99.90
43151;DHT22;28755;51.478;5.702;2023-08-08T06:30:06;16.00;99.90
43151;DHT22;28755;51.478;5.702;2023-08-08T06:32:33;16.10;99.90
43151;DHT22;28755;51.478;5.702;2023-08-08T06:34:59;16.10;99.90
43151;DHT22;28755;51.478;5.702;2023-08-08T06:37:25;16.20;99.90
43151;DHT22;28755;51.478;5.702;2023-08-08T06:39:50;16.20;99.90
43151;DHT22;28755;51.478;5.702;2023-08-08T06:42:16;16.30;99.90
43151;DHT22;28755;51.478;5.702;2023-08-08T06:44:44;16.40;99.90
43151;DHT22;28755;51.478;5.702;2023-08-08T06:47:10;16.40;99.90
43151;DHT22;28755;51.478;5.702;2023-08-08T06:49:37;16.60;99.90
43151;DHT22;28755;51.478;5.702;2023-08-08T06:52:03;16.70;99.90
43151;DHT22;28755;51.478;5.702;2023-08-08T06:54:29;16.40;99.90
43151;DHT22;28755;51.478;5.702;2023-08-08T06:56:54;16.50;99.90
43151;DHT22;28755;51.478;5.702;2023-08-08T06:59:22;16.70;99.90
43151;DHT22;28755;51.478;5.702;2023-08-08T07:01:48;17.10;99.90
43151;DHT22;28755;51.478;5.702;2023-08-08T07:04:14;17.10;99.90
43151;DHT22;28755;51.478;5.702;2023-08-08T07:06:39;17.10;99.90
43151;DHT22;28755;51.478;5.702;2023-08-08T07:09:05;17.00;99.90
43151;DHT22;28755;51.478;5.702;2023-08-08T07:11:31;17.00;99.90
43151;DHT22;28755;51.478;5.702;2023-08-08T07:13:57;17.20;99.90
43151;DHT22;28755;51.478;5.702;2023-08-08T07:16:23;17.20;99.90
43151;DHT22;28755;51.478;5.702;2023-08-08T07:18:48;17.30;99.90
43151;DHT22;28755;51.478;5.702;2023-08-08T07:21:14;17.40;99.90
43151;DHT22;28755;51.478;5.702;2023-08-08T07:23:40;17.60;99.90
43151;DHT22;28755;51.478;5.702;2023-08-08T07:26:05;17.80;99.90
43151;DHT22;28755;51.478;5.702;2023-08-08T07:28:31;17.80;99.90
43151;DHT22;28755;51.478;5.702;2023-08-08T07:30:57;17.60;99.90
43151;DHT22;28755;51.478;5.702;2023-08-08T07:33:23;17.50;99.90
43151;DHT22;28755;51.478;5.702;2023-08-08T07:35:49;17.60;99.90
43151;DHT22;28755;51.478;5.702;2023-08-08T07:38:14;17.60;99.90
43151;DHT22;28755;51.478;5.702;2023-08-08T07:40:41;17.90;99.90
43151;DHT22;28755;51.478;5.702;2023-08-08T07:43:06;17.90;99.90
43151;DHT22;28755;51.478;5.702;2023-08-08T07:45:32;17.80;99.90
43151;DHT22;28755;51.478;5.702;2023-08-08T07:47:58;17.80;99.90
43151;DHT22;28755;51.478;5.702;2023-08-08T07:50:23;17.80;99.90
43151;DHT22;28755;51.478;5.702;2023-08-08T07:52:49;17.80;99.90
43151;DHT22;28755;51.478;5.702;2023-08-08T07:55:14;17.90;99.90
43151;DHT22;28755;51.478;5.702;2023-08-08T07:57:40;18.00;99.90
43151;DHT22;28755;51.478;5.702;2023-08-08T08:00:06;18.40;99.90
43151;DHT22;28755;51.478;5.702;2023-08-08T08:02:44;18.80;99.90
43151;DHT22;28755;51.478;5.702;2023-08-08T08:05:10;18.90;99.90
43151;DHT22;28755;51.478;5.702;2023-08-08T08:07:36;18.80;99.90
43151;DHT22;28755;51.478;5.702;2023-08-08T08:10:03;19.00;99.90
43151;DHT22;28755;51.478;5.702;2023-08-08T08:12:30;19.10;99.90
43151;DHT22;28755;51.478;5.702;2023-08-08T08:14:56;19.30;99.90
43151;DHT22;28755;51.478;5.702;2023-08-08T08:17:21;19.00;99.90
43151;DHT22;28755;51.478;5.702;2023-08-08T08:19:47;18.70;99.90
43151;DHT22;28755;51.478;5.702;2023-08-08T08:22:12;19.00;99.90
43151;DHT22;28755;51.478;5.702;2023-08-08T08:24:38;19.00;99.90
43151;DHT22;28755;51.478;5.702;2023-08-08T08:27:03;19.10;99.90
43151;DHT22;28755;51.478;5.702;2023-08-08T08:29:29;19.00;99.90
43151;DHT22;28755;51.478;5.702;2023-08-08T08:31:56;19.00;99.90
43151;DHT22;28755;51.478;5.702;2023-08-08T08:34:21;18.70;99.90
43151;DHT22;28755;51.478;5.702;2023-08-08T08:36:47;18.70;99.90
43151;DHT22;28755;51.478;5.702;2023-08-08T08:39:13;18.70;99.90
43151;DHT22;28755;51.478;5.702;2023-08-08T08:41:39;18.60;99.90
43151;DHT22;28755;51.478;5.702;2023-08-08T08:44:05;18.80;99.90
43151;DHT22;28755;51.478;5.702;2023-08-08T08:46:32;19.30;99.90
43151;DHT22;28755;51.478;5.702;2023-08-08T08:49:02;19.80;99.90
43151;DHT22;28755;51.478;5.702;2023-08-08T08:51:29;20.00;99.90
43151;DHT22;28755;51.478;5.702;2023-08-08T08:53:57;20.40;99.90
43151;DHT22;28755;51.478;5.702;2023-08-08T08:56:23;20.20;99.90
43151;DHT22;28755;51.478;5.702;2023-08-08T08:58:49;19.60;99.90
43151;DHT22;28755;51.478;5.702;2023-08-08T09:01:15;19.40;99.90
43151;DHT22;28755;51.478;5.702;2023-08-08T09:03:44;19.00;99.90
43151;DHT22;28755;51.478;5.702;2023-08-08T09:06:11;18.80;99.90
43151;DHT22;28755;51.478;5.702;2023-08-08T09:08:37;19.00;99.90
43151;DHT22;28755;51.478;5.702;2023-08-08T09:11:02;19.00;99.90
43151;DHT22;28755;51.478;5.702;2023-08-08T09:13:37;19.20;99.90
43151;DHT22;28755;51.478;5.702;2023-08-08T09:16:07;19.30;99.90
43151;DHT22;28755;51.478;5.702;2023-08-08T09:18:36;19.60;99.90
43151;DHT22;28755;51.478;5.702;2023-08-08T09:21:10;19.70;99.90
43151;DHT22;28755;51.478;5.702;2023-08-08T09:23:37;19.60;99.90
43151;DHT22;28755;51.478;5.702;2023-08-08T09:26:03;19.30;99.90
43151;DHT22;28755;51.478;5.702;2023-08-08T09:28:30;18.80;99.90
43151;DHT22;28755;51.478;5.702;2023-08-08T09:30:55;18.80;99.90
43151;DHT22;28755;51.478;5.702;2023-08-08T09:33:21;18.70;99.90
43151;DHT22;28755;51.478;5.702;2023-08-08T09:35:46;18.60;99.90
43151;DHT22;28755;51.478;5.702;2023-08-08T09:38:12;18.80;99.90
43151;DHT22;28755;51.478;5.702;2023-08-08T09:40:38;18.90;99.90
43151;DHT22;28755;51.478;5.702;2023-08-08T09:43:07;18.90;99.90
43151;DHT22;28755;51.478;5.702;2023-08-08T09:45:39;18.90;99.90
43151;DHT22;28755;51.478;5.702;2023-08-08T09:48:07;18.80;99.90
43151;DHT22;28755;51.478;5.702;2023-08-08T09:50:33;18.70;99.90
43151;DHT22;28755;51.478;5.702;2023-08-08T09:53:01;18.60;99.90
43151;DHT22;28755;51.478;5.702;2023-08-08T09:55:28;18.60;99.90
43151;DHT22;28755;51.478;5.702;2023-08-08T09:57:54;18.80;99.90
43151;DHT22;28755;51.478;5.702;2023-08-08T10:00:20;18.70;99.90
43151;DHT22;28755;51.478;5.702;2023-08-08T10:02:46;19.00;99.90
43151;DHT22;28755;51.478;5.702;2023-08-08T10:05:14;19.60;99.90
43151;DHT22;28755;51.478;5.702;2023-08-08T10:07:40;20.10;99.90
43151;DHT22;28755;51.478;5.702;2023-08-08T10:10:08;20.30;99.90
43151;DHT22;28755;51.478;5.702;2023-08-08T10:12:37;20.20;99.90
43151;DHT22;28755;51.478;5.702;2023-08-08T10:15:04;20.90;99.90
43151;DHT22;28755;51.478;5.702;2023-08-08T10:17:38;21.80;99.90
43151;DHT22;28755;51.478;5.702;2023-08-08T10:20:06;22.40;99.90
43151;DHT22;28755;51.478;5.702;2023-08-08T10:22:42;22.30;99.90
43151;DHT22;28755;51.478;5.702;2023-08-08T10:25:08;23.00;99.90
43151;DHT22;28755;51.478;5.702;2023-08-08T10:27:35;23.20;99.90
43151;DHT22;28755;51.478;5.702;2023-08-08T10:30:11;24.10;99.90
43151;DHT22;28755;51.478;5.702;2023-08-08T10:32:45;25.10;99.90
43151;DHT22;28755;51.478;5.702;2023-08-08T10:35:13;24.90;99.90
43151;DHT22;28755;51.478;5.702;2023-08-08T10:37:40;23.90;99.90
43151;DHT22;28755;51.478;5.702;2023-08-08T10:40:07;23.90;99.90
43151;DHT22;28755;51.478;5.702;2023-08-08T10:42:42;23.50;99.90
43151;DHT22;28755;51.478;5.702;2023-08-08T10:45:11;23.60;99.90
43151;DHT22;28755;51.478;5.702;2023-08-08T10:47:38;23.60;99.90
43151;DHT22;28755;51.478;5.702;2023-08-08T10:50:07;23.50;99.90
43151;DHT22;28755;51.478;5.702;2023-08-08T10:55:25;22.70;99.90
43151;DHT22;28755;51.478;5.702;2023-08-08T10:57:54;22.50;99.90
43151;DHT22;28755;51.478;5.702;2023-08-08T11:00:32;22.80;99.90
43151;DHT22;28755;51.478;5.702;2023-08-08T11:03:00;23.30;99.90
43151;DHT22;28755;51.478;5.702;2023-08-08T11:05:28;23.10;99.90
43151;DHT22;28755;51.478;5.702;2023-08-08T11:07:55;21.80;99.90
43151;DHT22;28755;51.478;5.702;2023-08-08T11:10:21;20.60;99.90
43151;DHT22;28755;51.478;5.702;2023-08-08T11:13:01;20.20;99.90
43151;DHT22;28755;51.478;5.702;2023-08-08T11:15:27;19.80;99.90
43151;DHT22;28755;51.478;5.702;2023-08-08T11:17:56;19.50;99.90
43151;DHT22;28755;51.478;5.702;2023-08-08T11:20:25;19.10;99.90
43151;DHT22;28755;51.478;5.702;2023-08-08T11:22:55;18.90;99.90
43151;DHT22;28755;51.478;5.702;2023-08-08T11:25:21;18.90;99.90
43151;DHT22;28755;51.478;5.702;2023-08-08T11:27:55;19.20;99.90
43151;DHT22;28755;51.478;5.702;2023-08-08T11:30:21;20.10;99.90
43151;DHT22;28755;51.478;5.702;2023-08-08T11:32:48;21.80;99.90
43151;DHT22;28755;51.478;5.702;2023-08-08T11:35:24;22.50;99.90
43151;DHT22;28755;51.478;5.702;2023-08-08T11:37:53;22.70;99.90
43151;DHT22;28755;51.478;5.702;2023-08-08T11:40:19;23.20;99.90
43151;DHT22;28755;51.478;5.702;2023-08-08T11:42:46;22.60;99.90
43151;DHT22;28755;51.478;5.702;2023-08-08T11:45:12;22.70;99.90
43151;DHT22;28755;51.478;5.702;2023-08-08T11:47:39;22.20;99.90
43151;DHT22;28755;51.478;5.702;2023-08-08T11:50:06;22.20;99.90
43151;DHT22;28755;51.478;5.702;2023-08-08T11:52:34;21.30;99.90
43151;DHT22;28755;51.478;5.702;2023-08-08T11:55:00;21.90;99.90
43151;DHT22;28755;51.478;5.702;2023-08-08T11:57:26;22.60;99.90
43151;DHT22;28755;51.478;5.702;2023-08-08T11:59:57;22.90;99.90
43151;DHT22;28755;51.478;5.702;2023-08-08T12:02:26;22.10;99.90
43151;DHT22;28755;51.478;5.702;2023-08-08T12:04:52;21.80;99.90
43151;DHT22;28755;51.478;5.702;2023-08-08T12:07:22;21.70;99.90
43151;DHT22;28755;51.478;5.702;2023-08-08T12:09:48;21.80;99.90
43151;DHT22;28755;51.478;5.702;2023-08-08T12:12:14;21.90;99.90
43151;DHT22;28755;51.478;5.702;2023-08-08T12:14:39;22.00;99.90
43151;DHT22;28755;51.478;5.702;2023-08-08T12:17:07;21.50;99.90
43151;DHT22;28755;51.478;5.702;2023-08-08T12:19:34;21.30;99.90
43151;DHT22;28755;51.478;5.702;2023-08-08T12:22:00;20.90;99.90
43151;DHT22;28755;51.478;5.702;2023-08-08T12:24:25;20.80;99.90
43151;DHT22;28755;51.478;5.702;2023-08-08T12:26:51;21.30;99.90
43151;DHT22;28755;51.478;5.702;2023-08-08T12:29:17;21.80;99.90
43151;DHT22;28755;51.478;5.702;2023-08-08T12:31:42;21.00;99.90
43151;DHT22;28755;51.478;5.702;2023-08-08T12:34:08;20.80;99.90
43151;DHT22;28755;51.478;5.702;2023-08-08T12:36:34;20.70;99.90
43151;DHT22;28755;51.478;5.702;2023-08-08T12:38:59;20.40;99.90
43151;DHT22;28755;51.478;5.702;2023-08-08T12:41:25;20.40;99.90
43151;DHT22;28755;51.478;5.702;2023-08-08T12:43:51;20.40;99.90
43151;DHT22;28755;51.478;5.702;2023-08-08T12:46:17;20.60;99.90
43151;DHT22;28755;51.478;5.702;2023-08-08T12:48:43;21.10;99.90
43151;DHT22;28755;51.478;5.702;2023-08-08T12:51:09;21.50;99.90
43151;DHT22;28755;51.478;5.702;2023-08-08T12:53:35;21.60;99.90
43151;DHT22;28755;51.478;5.702;2023-08-08T12:56:01;21.60;99.90
43151;DHT22;28755;51.478;5.702;2023-08-08T12:58:27;21.70;99.90
43151;DHT22;28755;51.478;5.702;2023-08-08T13:00:52;21.50;99.90
43151;DHT22;28755;51.478;5.702;2023-08-08T13:03:18;21.70;99.90
43151;DHT22;28755;51.478;5.702;2023-08-08T13:05:43;21.60;99.90
43151;DHT22;28755;51.478;5.702;2023-08-08T13:08:09;21.00;99.90
43151;DHT22;28755;51.478;5.702;2023-08-08T13:10:36;21.00;99.90
43151;DHT22;28755;51.478;5.702;2023-08-08T13:13:01;21.10;99.90
43151;DHT22;28755;51.478;5.702;2023-08-08T13:15:27;21.20;99.90
43151;DHT22;28755;51.478;5.702;2023-08-08T13:17:52;21.20;99.90
43151;DHT22;28755;51.478;5.702;2023-08-08T13:20:18;21.00;99.90
43151;DHT22;28755;51.478;5.702;2023-08-08T13:22:44;21.00;99.90
43151;DHT22;28755;51.478;5.702;2023-08-08T13:25:09;20.80;99.90
43151;DHT22;28755;51.478;5.702;2023-08-08T13:27:35;20.80;99.90
43151;DHT22;28755;51.478;5.702;2023-08-08T13:30:01;21.20;99.90
43151;DHT22;28755;51.478;5.702;2023-08-08T13:32:27;21.10;99.90
43151;DHT22;28755;51.478;5.702;2023-08-08T13:34:52;20.80;99.90
43151;DHT22;28755;51.478;5.702;2023-08-08T13:37:18;20.80;99.90
43151;DHT22;28755;51.478;5.702;2023-08-08T13:39:44;20.70;99.90
43151;DHT22;28755;51.478;5.702;2023-08-08T13:42:10;20.60;99.90
43151;DHT22;28755;51.478;5.702;2023-08-08T13:44:35;20.60;99.90
43151;DHT22;28755;51.478;5.702;2023-08-08T13:47:01;20.80;99.90
43151;DHT22;28755;51.478;5.702;2023-08-08T13:49:26;20.90;99.90
43151;DHT22;28755;51.478;5.702;2023-08-08T13:51:53;21.10;99.90
43151;DHT22;28755;51.478;5.702;2023-08-08T13:54:19;21.20;99.90
43151;DHT22;28755;51.478;5.702;2023-08-08T13:56:45;21.10;99.90
43151;DHT22;28755;51.478;5.702;2023-08-08T13:59:10;20.90;99.90
43151;DHT22;28755;51.478;5.702;2023-08-08T14:01:37;20.90;99.90
43151;DHT22;28755;51.478;5.702;2023-08-08T14:04:02;21.10;99.90
43151;DHT22;28755;51.478;5.702;2023-08-08T14:06:28;21.30;99.90
43151;DHT22;28755;51.478;5.702;2023-08-08T14:08:54;21.70;99.90
43151;DHT22;28755;51.478;5.702;2023-08-08T14:11:20;21.40;99.90
43151;DHT22;28755;51.478;5.702;2023-08-08T14:13:45;21.30;99.90
43151;DHT22;28755;51.478;5.702;2023-08-08T14:16:11;21.40;99.90
43151;DHT22;28755;51.478;5.702;2023-08-08T14:18:37;21.60;99.90
43151;DHT22;28755;51.478;5.702;2023-08-08T14:21:02;21.80;99.90
43151;DHT22;28755;51.478;5.702;2023-08-08T14:23:30;21.50;99.90
43151;DHT22;28755;51.478;5.702;2023-08-08T14:25:55;21.10;99.90
43151;DHT22;28755;51.478;5.702;2023-08-08T14:28:21;21.40;99.90
43151;DHT22;28755;51.478;5.702;2023-08-08T14:30:46;21.30;99.90
43151;DHT22;28755;51.478;5.702;2023-08-08T14:33:15;21.60;99.90
43151;DHT22;28755;51.478;5.702;2023-08-08T14:35:42;21.60;99.90
43151;DHT22;28755;51.478;5.702;2023-08-08T14:38:08;21.80;99.90
43151;DHT22;28755;51.478;5.702;2023-08-08T14:40:34;22.10;99.90
43151;DHT22;28755;51.478;5.702;2023-08-08T14:43:00;21.90;99.90
43151;DHT22;28755;51.478;5.702;2023-08-08T14:45:27;21.60;99.90
43151;DHT22;28755;51.478;5.702;2023-08-08T14:47:53;21.20;99.90
43151;DHT22;28755;51.478;5.702;2023-08-08T14:50:18;21.00;99.90
43151;DHT22;28755;51.478;5.702;2023-08-08T14:52:44;21.20;99.90
43151;DHT22;28755;51.478;5.702;2023-08-08T14:55:10;21.40;99.90
43151;DHT22;28755;51.478;5.702;2023-08-08T14:57:36;21.50;99.90
43151;DHT22;28755;51.478;5.702;2023-08-08T15:00:03;21.50;99.90
43151;DHT22;28755;51.478;5.702;2023-08-08T15:02:30;21.30;99.90
43151;DHT22;28755;51.478;5.702;2023-08-08T15:04:55;21.20;99.90
43151;DHT22;28755;51.478;5.702;2023-08-08T15:07:21;21.30;99.90
43151;DHT22;28755;51.478;5.702;2023-08-08T15:09:47;21.40;99.90
43151;DHT22;28755;51.478;5.702;2023-08-08T15:12:17;21.60;99.90
43151;DHT22;28755;51.478;5.702;2023-08-08T15:14:42;21.50;99.90
43151;DHT22;28755;51.478;5.702;2023-08-08T15:17:08;21.40;99.90
43151;DHT22;28755;51.478;5.702;2023-08-08T15:19:34;21.30;99.90
43151;DHT22;28755;51.478;5.702;2023-08-08T15:21:59;21.20;99.90
43151;DHT22;28755;51.478;5.702;2023-08-08T15:24:25;21.00;99.90
43151;DHT22;28755;51.478;5.702;2023-08-08T15:26:51;21.00;99.90
43151;DHT22;28755;51.478;5.702;2023-08-08T15:29:17;20.80;99.90
43151;DHT22;28755;51.478;5.702;2023-08-08T15:31:42;20.80;99.90